Time;durP1;ratioP1;P1;durP2;ratioP2;P2;SDS_P1;SDS_P2;PMS_P1;PMS_P2;Temp;Humidity;BMP_temperature;BMP_pressure;BME280_temperature;BME280_humidity;BME280_pressure;Samples;Min_cycle;Max_cycle;Signal;HPM_P1;HPM_P2
2023/06/04 00:00:06;;;;;;;5.93;4.22;;;;;;;;;;2037362;29;20020;-89
2023/06/04 00:01:07;;;;;;;6.13;4.88;;;;;;;;;;2033520;29;20150;-90
2023/06/04 00:02:07;;;;;;;6.65;4.80;;;;;;;;;;1688261;29;9999888;-89
2023/06/04 00:03:08;;;;;;;6.85;4.80;;;;;;;;;;2029396;29;20050;-90
2023/06/04 00:04:08;;;;;;;5.38;4.47;;;;;;;;;;2038664;29;20024;-89
2023/06/04 00:05:08;;;;;;;5.70;4.72;;;;;;;;;;2031167;29;20072;-89
2023/06/04 00:06:09;;;;;;;6.32;4.15;;;;;;;;;;2023202;29;20041;-88
2023/06/04 00:07:10;;;;;;;5.78;4.75;;;;;;;;;;2029726;29;20047;-90
2023/06/04 00:08:10;;;;;;;7.00;4.85;;;;;;;;;;2028300;29;20060;-89
2023/06/04 00:09:10;;;;;;;6.43;4.85;;;;;;;;;;2027331;29;20067;-88
2023/06/04 00:10:11;;;;;;;5.38;4.72;;;;;;;;;;2030410;29;20039;-88
2023/06/04 00:11:11;;;;;;;7.95;5.13;;;;;;;;;;2032742;29;20028;-87
2023/06/04 00:12:13;;;;;;;7.20;5.03;;;;;;;;;;2023461;29;20120;-87
2023/06/04 00:13:14;;;;;;;5.70;5.10;;;;;;;;;;2030777;29;20043;-88
2023/06/04 00:14:15;;;;;;;10.50;5.30;;;;;;;;;;2039965;29;20046;-88
2023/06/04 00:15:16;;;;;;;5.88;4.70;;;;;;;;;;2030352;29;20186;-88
2023/06/04 00:16:16;;;;;;;7.00;5.78;;;;;;;;;;2026782;29;20032;-89
2023/06/04 00:17:17;;;;;;;7.32;5.10;;;;;;;;;;2026476;29;20029;-89
2023/06/04 00:18:17;;;;;;;11.82;5.50;;;;;;;;;;2027424;29;20032;-90
2023/06/04 00:19:18;;;;;;;8.40;4.90;;;;;;;;;;2027089;29;20055;-89
2023/06/04 00:20:18;;;;;;;7.90;4.85;;;;;;;;;;2020094;29;20112;-89
2023/06/04 00:21:19;;;;;;;7.60;4.97;;;;;;;;;;2019913;29;20067;-89
2023/06/04 00:22:19;;;;;;;7.25;4.70;;;;;;;;;;2027244;29;20032;-89
2023/06/04 00:23:20;;;;;;;6.45;4.88;;;;;;;;;;2018481;29;20033;-89
2023/06/04 00:24:20;;;;;;;8.02;4.88;;;;;;;;;;2025579;29;20033;-90
2023/06/04 00:25:20;;;;;;;6.50;4.72;;;;;;;;;;2025186;29;20059;-89
2023/06/04 00:26:21;;;;;;;7.10;5.22;;;;;;;;;;2026705;29;20120;-89
2023/06/04 00:27:22;;;;;;;7.45;4.68;;;;;;;;;;2038142;29;20084;-88
2023/06/04 00:28:22;;;;;;;7.88;4.80;;;;;;;;;;2028819;29;20144;-89
2023/06/04 00:29:22;;;;;;;5.35;4.60;;;;;;;;;;2017321;29;20041;-88
2023/06/04 00:30:23;;;;;;;6.22;5.05;;;;;;;;;;2025046;29;20040;-89
2023/06/04 00:31:24;;;;;;;9.30;4.97;;;;;;;;;;2024996;29;20028;-89
2023/06/04 00:32:24;;;;;;;7.25;5.88;;;;;;;;;;2025154;29;20032;-89
2023/06/04 00:33:25;;;;;;;7.75;5.50;;;;;;;;;;2026042;29;20044;-87
2023/06/04 00:34:27;;;;;;;7.90;5.05;;;;;;;;;;2036329;29;20040;-88
2023/06/04 00:35:27;;;;;;;6.50;5.32;;;;;;;;;;2034303;29;20035;-89
2023/06/04 00:36:28;;;;;;;6.72;4.60;;;;;;;;;;2024958;29;20111;-88
2023/06/04 00:37:29;;;;;;;7.15;5.40;;;;;;;;;;2024906;29;20040;-88
2023/06/04 00:38:30;;;;;;;7.63;5.50;;;;;;;;;;2025148;29;20184;-89
2023/06/04 00:39:30;;;;;;;6.95;5.30;;;;;;;;;;2025116;29;20121;-88
2023/06/04 00:40:30;;;;;;;6.60;5.20;;;;;;;;;;2025224;29;20024;-88
2023/06/04 00:41:31;;;;;;;6.57;5.15;;;;;;;;;;2024733;29;20501;-88
2023/06/04 00:42:32;;;;;;;7.80;5.45;;;;;;;;;;2025109;29;20523;-87
2023/06/04 00:43:32;;;;;;;8.30;5.93;;;;;;;;;;2033417;29;20035;-87
2023/06/04 00:44:33;;;;;;;10.02;5.65;;;;;;;;;;2025193;29;20056;-88
2023/06/04 00:45:34;;;;;;;6.90;5.55;;;;;;;;;;2025073;29;20028;-89
2023/06/04 00:46:35;;;;;;;8.23;5.75;;;;;;;;;;2033148;29;20046;-87
2023/06/04 00:47:36;;;;;;;9.30;5.82;;;;;;;;;;2033654;29;20039;-87
2023/06/04 00:48:36;;;;;;;8.68;5.20;;;;;;;;;;2033373;29;20028;-87
2023/06/04 00:49:37;;;;;;;7.10;5.43;;;;;;;;;;2033187;29;20431;-87
2023/06/04 00:50:38;;;;;;;8.05;5.70;;;;;;;;;;2024701;29;20491;-88
2023/06/04 00:51:39;;;;;;;9.20;5.57;;;;;;;;;;2024988;29;20032;-88
2023/06/04 00:52:40;;;;;;;7.80;5.68;;;;;;;;;;2024851;29;20378;-87
2023/06/04 00:53:40;;;;;;;8.10;5.55;;;;;;;;;;2024606;29;20122;-88
2023/06/04 00:54:41;;;;;;;6.20;5.60;;;;;;;;;;2016882;29;20123;-88
2023/06/04 00:55:42;;;;;;;7.30;5.65;;;;;;;;;;2024704;29;20039;-88
2023/06/04 00:56:44;;;;;;;6.43;5.38;;;;;;;;;;2032880;29;20109;-88
2023/06/04 00:57:44;;;;;;;9.43;5.38;;;;;;;;;;2032900;29;20028;-88
2023/06/04 00:58:46;;;;;;;5.57;4.97;;;;;;;;;;2024456;29;20055;-89
2023/06/04 00:59:46;;;;;;;9.25;5.70;;;;;;;;;;2024354;29;20140;-89
2023/06/04 01:00:47;;;;;;;8.65;6.05;;;;;;;;;;2024904;29;20100;-89
2023/06/04 01:02:01;;;;;;;6.47;5.53;;;;;;;;;;2033264;29;20556;-89
2023/06/04 01:03:08;;;;;;;6.95;5.55;;;;;;;;;;2038407;29;20042;-89
2023/06/04 01:04:16;;;;;;;7.05;5.57;;;;;;;;;;2024791;29;20024;-89
2023/06/04 01:05:16;;;;;;;8.23;5.80;;;;;;;;;;2017724;29;20047;-89
2023/06/04 01:06:32;;;;;;;7.60;5.43;;;;;;;;;;2016915;29;20047;-89
2023/06/04 01:07:33;;;;;;;7.68;5.35;;;;;;;;;;2028459;29;20028;-88
2023/06/04 01:08:33;;;;;;;9.18;5.50;;;;;;;;;;2021400;29;20124;-88
2023/06/04 01:09:34;;;;;;;5.75;5.22;;;;;;;;;;2009215;29;20038;-88
2023/06/04 01:10:35;;;;;;;6.05;5.38;;;;;;;;;;2012145;29;20570;-89
2023/06/04 01:11:38;;;;;;;7.70;5.20;;;;;;;;;;2024671;29;20037;-89
2023/06/04 01:12:44;;;;;;;8.20;5.43;;;;;;;;;;2024311;29;20055;-89
2023/06/04 01:13:44;;;;;;;6.78;5.50;;;;;;;;;;2025129;29;20089;-89
2023/06/04 01:14:45;;;;;;;6.70;5.55;;;;;;;;;;2024308;29;20036;-89
2023/06/04 01:15:45;;;;;;;7.32;5.30;;;;;;;;;;2024496;29;20069;-89
2023/06/04 01:16:48;;;;;;;5.80;5.20;;;;;;;;;;2024465;29;20048;-89
2023/06/04 01:17:52;;;;;;;7.45;5.50;;;;;;;;;;2016691;29;20438;-88
2023/06/04 01:18:55;;;;;;;8.95;5.63;;;;;;;;;;2024762;29;20496;-89
2023/06/04 01:20:20;;;;;;;6.75;4.95;;;;;;;;;;2024405;29;20483;-89
2023/06/04 01:21:20;;;;;;;7.57;5.30;;;;;;;;;;2027944;29;20472;-89
2023/06/04 01:22:28;;;;;;;6.28;5.28;;;;;;;;;;2024369;29;20037;-89
2023/06/04 01:23:59;;;;;;;7.95;5.57;;;;;;;;;;2018158;29;20032;-89
2023/06/04 01:25:03;;;;;;;6.35;5.63;;;;;;;;;;2033670;29;20036;-90
2023/06/04 01:26:05;;;;;;;7.63;5.35;;;;;;;;;;2033347;29;20464;-89
2023/06/04 01:27:06;;;;;;;11.32;5.22;;;;;;;;;;2033226;29;20039;-89
2023/06/04 01:28:08;;;;;;;8.30;5.90;;;;;;;;;;2033197;29;20043;-89
2023/06/04 01:29:09;;;;;;;8.52;5.95;;;;;;;;;;2024605;29;20123;-90
2023/06/04 01:30:11;;;;;;;8.43;5.03;;;;;;;;;;2024861;29;20103;-89
2023/06/04 01:31:13;;;;;;;5.82;4.72;;;;;;;;;;2024175;29;20432;-89
2023/06/04 01:32:16;;;;;;;9.75;4.97;;;;;;;;;;2024584;29;20032;-89
2023/06/04 01:33:18;;;;;;;7.15;5.53;;;;;;;;;;2033060;29;20032;-88
2023/06/04 01:34:19;;;;;;;6.68;5.20;;;;;;;;;;2024440;29;20059;-88
2023/06/04 01:35:20;;;;;;;8.70;5.15;;;;;;;;;;2016653;29;20486;-89
2023/06/04 01:36:20;;;;;;;7.35;5.43;;;;;;;;;;2024495;29;20473;-89
2023/06/04 01:37:21;;;;;;;6.47;5.57;;;;;;;;;;2024308;29;20032;-89
2023/06/04 01:38:22;;;;;;;7.20;5.18;;;;;;;;;;2016780;29;20040;-88
2023/06/04 01:39:22;;;;;;;7.53;5.03;;;;;;;;;;2024429;29;20306;-89
2023/06/04 01:40:23;;;;;;;5.88;4.60;;;;;;;;;;2024662;29;20028;-89
2023/06/04 01:41:25;;;;;;;5.60;5.00;;;;;;;;;;2024916;29;20028;-89
2023/06/04 01:42:25;;;;;;;6.32;4.95;;;;;;;;;;2033080;29;20396;-89
2023/06/04 01:43:25;;;;;;;7.50;5.47;;;;;;;;;;2033440;29;20040;-89
2023/06/04 01:44:26;;;;;;;9.90;5.60;;;;;;;;;;2033038;29;20104;-88
2023/06/04 01:45:27;;;;;;;7.18;5.00;;;;;;;;;;2032936;29;20115;-90
2023/06/04 01:46:27;;;;;;;7.30;5.25;;;;;;;;;;2032917;29;20493;-88
2023/06/04 01:47:28;;;;;;;8.48;4.75;;;;;;;;;;2024219;29;20043;-89
2023/06/04 01:48:28;;;;;;;7.35;4.90;;;;;;;;;;2024717;29;20175;-89
2023/06/04 01:49:29;;;;;;;6.45;4.85;;;;;;;;;;2024756;29;20495;-88
2023/06/04 01:50:30;;;;;;;7.72;5.35;;;;;;;;;;2016433;29;20502;-88
2023/06/04 01:51:31;;;;;;;6.60;4.72;;;;;;;;;;2024353;29;20080;-88
2023/06/04 01:52:32;;;;;;;7.88;5.75;;;;;;;;;;2032757;29;20111;-88
2023/06/04 01:53:33;;;;;;;6.18;5.20;;;;;;;;;;2024188;29;20025;-89
2023/06/04 01:54:33;;;;;;;5.65;5.00;;;;;;;;;;2016701;29;20198;-89
2023/06/04 01:55:34;;;;;;;7.78;4.22;;;;;;;;;;2024156;29;20444;-89
2023/06/04 01:56:34;;;;;;;7.28;4.85;;;;;;;;;;2033174;29;20466;-88
2023/06/04 01:57:36;;;;;;;7.32;5.15;;;;;;;;;;2024614;29;20041;-89
2023/06/04 01:58:36;;;;;;;6.60;5.22;;;;;;;;;;2024768;29;20064;-88
2023/06/04 01:59:38;;;;;;;6.93;5.00;;;;;;;;;;1685934;29;10001546;-89
2023/06/04 02:00:39;;;;;;;6.75;4.93;;;;;;;;;;2024454;29;20076;-89
2023/06/04 02:01:39;;;;;;;8.02;5.90;;;;;;;;;;2033442;29;20066;-88
2023/06/04 02:02:43;;;;;;;8.48;6.13;;;;;;;;;;2039906;29;20039;-89
2023/06/04 02:03:44;;;;;;;9.13;5.25;;;;;;;;;;2031964;29;20035;-90
2023/06/04 02:04:46;;;;;;;7.07;5.60;;;;;;;;;;2026590;29;20101;-88
2023/06/04 02:05:48;;;;;;;6.97;5.35;;;;;;;;;;2034471;29;20021;-89
2023/06/04 02:06:50;;;;;;;7.07;5.90;;;;;;;;;;2034340;29;20052;-89
2023/06/04 02:07:51;;;;;;;6.70;5.15;;;;;;;;;;2026573;29;20029;-88
2023/06/04 02:08:53;;;;;;;7.45;5.82;;;;;;;;;;2033940;29;20020;-89
2023/06/04 02:09:53;;;;;;;7.35;5.35;;;;;;;;;;2036622;29;20044;-89
2023/06/04 02:10:53;;;;;;;7.85;5.60;;;;;;;;;;2033967;29;20052;-89
2023/06/04 02:11:54;;;;;;;7.45;5.53;;;;;;;;;;2032513;29;20024;-89
2023/06/04 02:12:56;;;;;;;6.38;5.40;;;;;;;;;;2033067;29;20309;-89
2023/06/04 02:13:56;;;;;;;6.60;5.38;;;;;;;;;;1685313;29;10235728;-89
2023/06/04 02:14:57;;;;;;;7.35;5.32;;;;;;;;;;2037591;29;20115;-87
2023/06/04 02:15:57;;;;;;;6.72;5.00;;;;;;;;;;2026592;29;20024;-88
2023/06/04 02:16:57;;;;;;;6.32;5.57;;;;;;;;;;2016759;29;20064;-89
2023/06/04 02:18:12;;;;;;;6.32;5.32;;;;;;;;;;2016920;29;20113;-88
2023/06/04 02:19:14;;;;;;;7.57;6.05;;;;;;;;;;2026513;29;20207;-88
2023/06/04 02:20:15;;;;;;;7.30;5.45;;;;;;;;;;2032426;29;20087;-89
2023/06/04 02:21:15;;;;;;;6.68;5.60;;;;;;;;;;2032947;29;20039;-88
2023/06/04 02:22:17;;;;;;;10.60;6.15;;;;;;;;;;2032932;29;20485;-89
2023/06/04 02:23:19;;;;;;;7.63;6.50;;;;;;;;;;2041766;29;20048;-88
2023/06/04 02:24:20;;;;;;;8.73;6.30;;;;;;;;;;2042064;29;20036;-89
2023/06/04 02:25:21;;;;;;;6.90;5.80;;;;;;;;;;2034114;29;20036;-89
2023/06/04 02:26:23;;;;;;;8.90;6.18;;;;;;;;;;2034202;29;20033;-88
2023/06/04 02:27:23;;;;;;;7.82;5.75;;;;;;;;;;2044414;29;20036;-88
2023/06/04 02:28:25;;;;;;;9.43;5.80;;;;;;;;;;2035695;29;20059;-88
2023/06/04 02:29:26;;;;;;;7.15;5.10;;;;;;;;;;2034847;29;20036;-88
2023/06/04 02:30:26;;;;;;;8.07;6.20;;;;;;;;;;2032838;29;20028;-89
2023/06/04 02:31:27;;;;;;;11.38;6.25;;;;;;;;;;2032577;29;20143;-88
2023/06/04 02:32:28;;;;;;;7.32;5.53;;;;;;;;;;2023977;29;20124;-88
2023/06/04 02:33:29;;;;;;;5.75;4.70;;;;;;;;;;2024027;29;20426;-89
2023/06/04 02:34:29;;;;;;;6.65;4.80;;;;;;;;;;2023816;29;20028;-89
2023/06/04 02:35:30;;;;;;;5.03;4.53;;;;;;;;;;2023727;29;20032;-88
2023/06/04 02:36:31;;;;;;;5.47;4.55;;;;;;;;;;2024104;29;20039;-89
2023/06/04 02:37:31;;;;;;;6.53;4.53;;;;;;;;;;2015996;29;20029;-89
2023/06/04 02:38:32;;;;;;;7.20;4.90;;;;;;;;;;2023882;29;20032;-89
2023/06/04 02:39:33;;;;;;;6.30;5.40;;;;;;;;;;2024297;29;20025;-89
2023/06/04 02:40:34;;;;;;;8.40;5.15;;;;;;;;;;2016059;29;20033;-89
2023/06/04 02:41:35;;;;;;;6.60;4.82;;;;;;;;;;2016179;29;20040;-89
2023/06/04 02:42:38;;;;;;;7.45;5.10;;;;;;;;;;2016248;29;20159;-89
2023/06/04 02:43:39;;;;;;;6.55;5.43;;;;;;;;;;2024221;29;20501;-89
2023/06/04 02:44:39;;;;;;;7.40;5.30;;;;;;;;;;2032359;29;20038;-89
2023/06/04 02:45:40;;;;;;;7.15;5.60;;;;;;;;;;2023986;29;20412;-88
2023/06/04 02:46:41;;;;;;;7.60;5.72;;;;;;;;;;2023685;29;20067;-89
2023/06/04 02:47:41;;;;;;;5.65;5.10;;;;;;;;;;2023921;29;20035;-88
2023/06/04 02:48:42;;;;;;;7.85;5.45;;;;;;;;;;2016151;29;20351;-89
2023/06/04 02:49:42;;;;;;;6.50;4.95;;;;;;;;;;2024293;29;20489;-89
2023/06/04 02:50:42;;;;;;;6.63;4.80;;;;;;;;;;2032378;29;20083;-88
2023/06/04 02:51:43;;;;;;;8.35;4.90;;;;;;;;;;2032405;29;20465;-88
2023/06/04 02:52:44;;;;;;;5.70;5.05;;;;;;;;;;2032346;29;20033;-88
2023/06/04 02:53:45;;;;;;;6.95;5.40;;;;;;;;;;2023684;29;20041;-91
2023/06/04 02:54:45;;;;;;;9.73;6.20;;;;;;;;;;2023695;29;20047;-89
2023/06/04 02:55:46;;;;;;;7.32;5.47;;;;;;;;;;2032322;29;20115;-90
2023/06/04 02:56:48;;;;;;;7.60;5.85;;;;;;;;;;2023876;29;20032;-89
2023/06/04 02:57:51;;;;;;;7.20;5.68;;;;;;;;;;2024134;29;20100;-89
2023/06/04 02:58:55;;;;;;;7.65;6.03;;;;;;;;;;2023792;29;20089;-89
2023/06/04 02:59:57;;;;;;;7.70;6.10;;;;;;;;;;2023567;29;20033;-90
2023/06/04 03:00:57;;;;;;;7.88;5.75;;;;;;;;;;2025864;29;20088;-89
2023/06/04 03:01:57;;;;;;;7.38;5.53;;;;;;;;;;2032116;29;20047;-88
2023/06/04 03:03:01;;;;;;;7.35;5.55;;;;;;;;;;2023614;29;20064;-90
2023/06/04 03:04:04;;;;;;;10.00;6.28;;;;;;;;;;2024235;29;20028;-90
2023/06/04 03:05:05;;;;;;;6.68;5.35;;;;;;;;;;2026617;29;20020;-86
2023/06/04 03:06:06;;;;;;;10.02;6.03;;;;;;;;;;2030091;29;20069;-89
2023/06/04 03:07:07;;;;;;;6.63;5.65;;;;;;;;;;2032475;29;20026;-89
2023/06/04 03:08:08;;;;;;;7.82;5.68;;;;;;;;;;2023770;29;20023;-89
2023/06/04 03:09:08;;;;;;;8.82;6.40;;;;;;;;;;2024107;29;20021;-89
2023/06/04 03:10:10;;;;;;;7.85;5.65;;;;;;;;;;2023736;29;20033;-89
2023/06/04 03:11:11;;;;;;;9.65;5.97;;;;;;;;;;2016272;29;20040;-89
2023/06/04 03:12:11;;;;;;;7.95;5.70;;;;;;;;;;2023696;29;20036;-89
2023/06/04 03:13:12;;;;;;;7.32;5.97;;;;;;;;;;2023714;29;20449;-89
2023/06/04 03:14:12;;;;;;;9.05;6.32;;;;;;;;;;2023953;29;20064;-90
2023/06/04 03:15:13;;;;;;;7.90;5.55;;;;;;;;;;2023993;29;20076;-89
2023/06/04 03:16:13;;;;;;;7.85;6.00;;;;;;;;;;2032776;29;20571;-89
2023/06/04 03:17:14;;;;;;;8.95;6.30;;;;;;;;;;2024535;29;20029;-90
2023/06/04 03:18:15;;;;;;;7.55;5.32;;;;;;;;;;2015965;29;20561;-90
2023/06/04 03:19:16;;;;;;;7.43;6.05;;;;;;;;;;2023850;29;20101;-91
2023/06/04 03:20:17;;;;;;;7.78;6.10;;;;;;;;;;2023913;29;20124;-90
2023/06/04 03:21:17;;;;;;;9.68;6.03;;;;;;;;;;2016274;29;20040;-91
2023/06/04 03:22:18;;;;;;;7.88;5.82;;;;;;;;;;2016011;29;20152;-90
2023/06/04 03:23:19;;;;;;;6.82;6.03;;;;;;;;;;2023867;29;20048;-90
2023/06/04 03:24:20;;;;;;;9.90;6.30;;;;;;;;;;2016158;29;20541;-91
2023/06/04 03:25:20;;;;;;;6.95;6.25;;;;;;;;;;2023983;29;20119;-90
2023/06/04 03:26:21;;;;;;;8.10;6.18;;;;;;;;;;2023881;29;20108;-91
2023/06/04 03:27:21;;;;;;;7.60;6.53;;;;;;;;;;2023759;29;20423;-89
2023/06/04 03:28:22;;;;;;;7.55;5.90;;;;;;;;;;2032106;29;20361;-91
2023/06/04 03:29:22;;;;;;;10.63;6.13;;;;;;;;;;2023893;29;20029;-90
2023/06/04 03:30:23;;;;;;;7.45;6.65;;;;;;;;;;2015918;29;20413;-90
2023/06/04 03:31:25;;;;;;;8.27;6.82;;;;;;;;;;2023716;29;20024;-90
2023/06/04 03:32:25;;;;;;;8.77;6.68;;;;;;;;;;2023939;29;20244;-90
2023/06/04 03:33:26;;;;;;;11.52;6.30;;;;;;;;;;2023774;29;20568;-90
2023/06/04 03:34:27;;;;;;;6.95;6.30;;;;;;;;;;2016116;29;20505;-90
2023/06/04 03:35:27;;;;;;;9.45;6.50;;;;;;;;;;2015973;29;20461;-90
2023/06/04 03:36:32;;;;;;;8.98;6.60;;;;;;;;;;2023661;29;20125;-90
2023/06/04 03:37:33;;;;;;;7.45;6.47;;;;;;;;;;2029274;29;20033;-90
2023/06/04 03:38:35;;;;;;;8.13;6.63;;;;;;;;;;2024644;29;20056;-90
2023/06/04 03:39:36;;;;;;;10.18;6.78;;;;;;;;;;2022905;29;20057;-89
2023/06/04 03:40:36;;;;;;;8.40;6.68;;;;;;;;;;2023765;29;20036;-89
2023/06/04 03:41:36;;;;;;;7.63;6.35;;;;;;;;;;2023651;29;20056;-90
2023/06/04 03:42:37;;;;;;;9.05;7.05;;;;;;;;;;2015712;29;20065;-90
2023/06/04 03:43:37;;;;;;;9.80;6.90;;;;;;;;;;2015950;29;20123;-88
2023/06/04 03:44:38;;;;;;;9.32;6.80;;;;;;;;;;2023702;29;20070;-89
2023/06/04 03:45:38;;;;;;;8.35;6.70;;;;;;;;;;2032415;29;20031;-89
2023/06/04 03:46:41;;;;;;;7.88;6.80;;;;;;;;;;2024905;29;20197;-88
2023/06/04 03:47:43;;;;;;;9.05;7.38;;;;;;;;;;2025098;29;20039;-89
2023/06/04 03:48:43;;;;;;;7.97;6.65;;;;;;;;;;2025149;29;20469;-89
2023/06/04 03:49:43;;;;;;;9.20;7.15;;;;;;;;;;2025360;29;20075;-89
2023/06/04 03:50:45;;;;;;;7.88;6.38;;;;;;;;;;2034038;29;20027;-89
2023/06/04 03:51:46;;;;;;;7.43;6.57;;;;;;;;;;2033686;29;20035;-89
2023/06/04 03:52:48;;;;;;;8.25;6.05;;;;;;;;;;2025028;29;20032;-90
2023/06/04 03:53:48;;;;;;;8.77;6.45;;;;;;;;;;2025111;29;20032;-90
2023/06/04 03:54:48;;;;;;;8.55;6.72;;;;;;;;;;2018663;29;20501;-91
2023/06/04 03:55:49;;;;;;;9.10;6.68;;;;;;;;;;2030059;29;20036;-89
2023/06/04 03:56:49;;;;;;;8.18;6.70;;;;;;;;;;2030363;29;20040;-90
2023/06/04 03:57:50;;;;;;;8.75;6.32;;;;;;;;;;2025549;29;20032;-89
2023/06/04 03:58:51;;;;;;;8.73;6.70;;;;;;;;;;2034075;29;20355;-89
2023/06/04 03:59:52;;;;;;;8.48;7.38;;;;;;;;;;2034230;29;20114;-89
2023/06/04 04:00:52;;;;;;;7.65;6.75;;;;;;;;;;2025569;29;20020;-88
2023/06/04 04:01:53;;;;;;;11.38;6.78;;;;;;;;;;2025416;29;20089;-89
2023/06/04 04:02:53;;;;;;;7.72;6.93;;;;;;;;;;2025168;29;20032;-89
2023/06/04 04:03:54;;;;;;;8.90;7.15;;;;;;;;;;2025371;29;20033;-89
2023/06/04 04:04:54;;;;;;;9.70;6.75;;;;;;;;;;2025404;29;20029;-88
2023/06/04 04:05:56;;;;;;;9.55;6.47;;;;;;;;;;2025593;29;20148;-89
2023/06/04 04:06:57;;;;;;;8.25;6.20;;;;;;;;;;2034040;29;20032;-89
2023/06/04 04:07:57;;;;;;;9.23;6.35;;;;;;;;;;2025223;29;20493;-88
2023/06/04 04:08:58;;;;;;;8.90;6.57;;;;;;;;;;2025753;29;20073;-88
2023/06/04 04:09:59;;;;;;;10.57;6.47;;;;;;;;;;2033630;29;20024;-89
2023/06/04 04:11:00;;;;;;;9.10;6.13;;;;;;;;;;2033798;29;20051;-90
2023/06/04 04:12:00;;;;;;;10.57;6.53;;;;;;;;;;2025074;29;20156;-90
2023/06/04 04:13:00;;;;;;;9.57;6.65;;;;;;;;;;2025370;29;20162;-91
2023/06/04 04:14:01;;;;;;;8.10;6.40;;;;;;;;;;2033661;29;20143;-90
2023/06/04 04:15:02;;;;;;;8.07;6.50;;;;;;;;;;2035015;29;20064;-89
2023/06/04 04:16:03;;;;;;;8.43;6.25;;;;;;;;;;1681378;29;10244624;-89
2023/06/04 04:17:03;;;;;;;8.45;6.50;;;;;;;;;;2027454;29;20031;-89
2023/06/04 04:18:04;;;;;;;9.88;6.65;;;;;;;;;;2017477;29;20032;-89
2023/06/04 04:19:07;;;;;;;8.90;6.00;;;;;;;;;;2017159;29;20037;-89
2023/06/04 04:20:08;;;;;;;10.95;6.40;;;;;;;;;;2017419;29;20115;-90
2023/06/04 04:21:08;;;;;;;8.05;6.07;;;;;;;;;;2025167;29;20081;-90
2023/06/04 04:22:10;;;;;;;7.05;5.78;;;;;;;;;;2033542;29;20035;-89
2023/06/04 04:23:11;;;;;;;8.30;6.22;;;;;;;;;;2024805;29;20044;-89
2023/06/04 04:24:25;;;;;;;8.07;5.93;;;;;;;;;;2024972;29;20029;-89
2023/06/04 04:25:26;;;;;;;6.25;5.60;;;;;;;;;;2033632;29;20030;-89
2023/06/04 04:26:27;;;;;;;8.70;5.93;;;;;;;;;;2024847;29;20412;-89
2023/06/04 04:27:30;;;;;;;6.40;5.75;;;;;;;;;;2025193;29;20104;-89
2023/06/04 04:28:32;;;;;;;8.48;5.80;;;;;;;;;;2033357;29;20035;-89
2023/06/04 04:29:32;;;;;;;9.80;5.78;;;;;;;;;;2033330;29;20040;-89
2023/06/04 04:30:35;;;;;;;7.70;5.43;;;;;;;;;;2033477;29;20032;-89
2023/06/04 04:31:36;;;;;;;8.88;6.03;;;;;;;;;;2033266;29;20111;-89
2023/06/04 04:32:38;;;;;;;7.28;6.00;;;;;;;;;;2025089;29;20383;-90
2023/06/04 04:33:40;;;;;;;7.13;5.78;;;;;;;;;;2030496;29;20016;-91
2023/06/04 04:34:54;;;;;;;6.97;5.80;;;;;;;;;;2035277;29;20039;-90
2023/06/04 04:35:56;;;;;;;7.47;5.45;;;;;;;;;;2037248;29;20017;-90
2023/06/04 04:36:56;;;;;;;7.40;5.68;;;;;;;;;;2034748;29;20071;-90
2023/06/04 04:37:57;;;;;;;7.60;5.35;;;;;;;;;;2025120;29;20029;-90
2023/06/04 04:38:58;;;;;;;8.48;5.75;;;;;;;;;;2021950;29;20092;-90
2023/06/04 04:39:59;;;;;;;7.97;5.03;;;;;;;;;;2025123;29;20532;-90
2023/06/04 04:41:00;;;;;;;7.63;4.90;;;;;;;;;;2032969;29;20044;-90
2023/06/04 04:42:02;;;;;;;6.50;5.25;;;;;;;;;;2024733;29;20489;-90
2023/06/04 04:43:02;;;;;;;5.85;5.25;;;;;;;;;;2024470;29;20039;-90
2023/06/04 04:44:04;;;;;;;8.75;5.70;;;;;;;;;;2024669;29;20516;-91
2023/06/04 04:45:06;;;;;;;7.88;5.78;;;;;;;;;;2024839;29;20068;-90
2023/06/04 04:46:06;;;;;;;6.40;5.43;;;;;;;;;;2025840;29;20051;-89
2023/06/04 04:47:07;;;;;;;6.82;5.22;;;;;;;;;;2029886;29;20032;-90
2023/06/04 04:48:07;;;;;;;9.18;5.75;;;;;;;;;;2024753;29;20564;-90
2023/06/04 04:49:08;;;;;;;6.15;4.93;;;;;;;;;;2017115;29;20434;-89
2023/06/04 04:50:08;;;;;;;7.88;4.95;;;;;;;;;;2025023;29;20088;-90
2023/06/04 04:51:09;;;;;;;9.98;5.70;;;;;;;;;;2024552;29;20111;-90
2023/06/04 04:52:09;;;;;;;6.90;5.47;;;;;;;;;;2024706;29;20040;-90
2023/06/04 04:53:10;;;;;;;7.75;5.18;;;;;;;;;;2035319;29;20060;-90
2023/06/04 04:54:10;;;;;;;7.13;5.05;;;;;;;;;;2034332;29;20017;-90
2023/06/04 04:55:11;;;;;;;6.78;4.93;;;;;;;;;;2025722;29;20021;-90
2023/06/04 04:56:12;;;;;;;8.60;5.22;;;;;;;;;;2022044;29;20096;-91
2023/06/04 04:57:12;;;;;;;7.43;4.88;;;;;;;;;;2028155;29;20199;-90
2023/06/04 04:58:13;;;;;;;9.43;5.00;;;;;;;;;;2024280;29;20420;-91
2023/06/04 04:59:14;;;;;;;11.10;4.90;;;;;;;;;;2024893;29;20118;-90
2023/06/04 05:00:15;;;;;;;8.43;4.70;;;;;;;;;;2024835;29;20067;-90
2023/06/04 05:01:16;;;;;;;7.63;4.97;;;;;;;;;;2025224;29;20040;-90
2023/06/04 05:02:16;;;;;;;7.45;5.30;;;;;;;;;;2024763;29;20365;-89
2023/06/04 05:03:16;;;;;;;7.07;4.82;;;;;;;;;;2024798;29;20036;-90
2023/06/04 05:04:17;;;;;;;8.90;5.35;;;;;;;;;;2024806;29;20032;-89
2023/06/04 05:05:17;;;;;;;8.63;4.88;;;;;;;;;;2025062;29;20067;-90
2023/06/04 05:06:18;;;;;;;7.28;4.85;;;;;;;;;;2032545;29;20103;-90
2023/06/04 05:07:21;;;;;;;7.28;4.80;;;;;;;;;;2032374;29;20028;-89
2023/06/04 05:08:21;;;;;;;6.75;4.80;;;;;;;;;;2032426;29;20540;-91
2023/06/04 05:09:22;;;;;;;9.70;5.10;;;;;;;;;;2032477;29;20099;-90
2023/06/04 05:10:23;;;;;;;8.82;5.20;;;;;;;;;;2024092;29;20064;-90
2023/06/04 05:11:23;;;;;;;5.95;4.97;;;;;;;;;;2023885;29;20047;-90
2023/06/04 05:12:25;;;;;;;9.90;5.22;;;;;;;;;;2023780;29;20033;-90
2023/06/04 05:13:26;;;;;;;10.18;4.70;;;;;;;;;;2030466;29;20021;-91
2023/06/04 05:14:27;;;;;;;9.50;5.32;;;;;;;;;;2024893;29;20059;-90
2023/06/04 05:15:27;;;;;;;5.47;4.43;;;;;;;;;;2021533;29;20050;-90
2023/06/04 05:16:29;;;;;;;5.93;4.63;;;;;;;;;;2016102;29;20197;-90
2023/06/04 05:17:29;;;;;;;6.70;4.72;;;;;;;;;;2016256;29;20440;-90
2023/06/04 05:18:30;;;;;;;5.82;4.43;;;;;;;;;;2016072;29;20094;-89
2023/06/04 05:19:32;;;;;;;7.32;5.18;;;;;;;;;;2023805;29;20038;-90
2023/06/04 05:20:35;;;;;;;7.43;5.50;;;;;;;;;;2031602;29;20023;-90
2023/06/04 05:21:36;;;;;;;7.32;5.20;;;;;;;;;;2023952;29;20024;-90
2023/06/04 05:22:37;;;;;;;8.60;6.63;;;;;;;;;;2024561;29;20037;-89
2023/06/04 05:23:39;;;;;;;9.65;5.97;;;;;;;;;;2024567;29;20147;-91
2023/06/04 05:24:39;;;;;;;8.40;6.18;;;;;;;;;;2024381;29;20466;-91
2023/06/04 05:25:40;;;;;;;9.55;6.07;;;;;;;;;;2016603;29;20033;-91
2023/06/04 05:26:42;;;;;;;8.07;5.53;;;;;;;;;;2024460;29;20130;-91
2023/06/04 05:27:49;;;;;;;5.22;4.13;;;;;;;;;;835376;29;10021952;-91
2023/06/04 05:28:49;;;;;;;5.85;5.20;;;;;;;;;;2024202;29;20242;-90
2023/06/04 05:29:50;;;;;;;8.65;6.03;;;;;;;;;;2016636;29;20025;-91
2023/06/04 05:30:59;;;;;;;6.25;5.60;;;;;;;;;;2016755;29;20099;-91
2023/06/04 05:31:59;;;;;;;6.82;5.30;;;;;;;;;;2025452;29;20445;-91
2023/06/04 05:33:00;;;;;;;6.72;5.35;;;;;;;;;;2032740;29;20031;-91
2023/06/04 05:34:01;;;;;;;7.65;5.45;;;;;;;;;;2024849;29;20505;-89
2023/06/04 05:35:04;;;;;;;5.82;4.57;;;;;;;;;;2025015;29;20104;-91
2023/06/04 05:36:04;;;;;;;10.13;5.32;;;;;;;;;;2024935;29;20120;-91
2023/06/04 05:37:08;;;;;;;7.70;4.97;;;;;;;;;;2027772;29;20020;-87
2023/06/04 05:38:18;;;;;;;5.60;4.53;;;;;;;;;;2026232;29;20028;-91
2023/06/04 05:39:23;;;;;;;6.88;4.86;;;;;;;;;;1674201;29;10301968;-90
2023/06/04 05:40:32;;;;;;;7.43;5.72;;;;;;;;;;2024792;29;20277;-90
2023/06/04 05:41:32;;;;;;;6.72;4.70;;;;;;;;;;2032353;29;20047;-90
2023/06/04 05:42:33;;;;;;;5.72;4.75;;;;;;;;;;2023630;29;20434;-90
2023/06/04 05:43:33;;;;;;;6.00;4.72;;;;;;;;;;2024052;29;20164;-91
2023/06/04 05:44:33;;;;;;;5.45;4.50;;;;;;;;;;2023750;29;20475;-90
2023/06/04 05:45:34;;;;;;;6.88;4.85;;;;;;;;;;2032144;29;20048;-90
2023/06/04 05:46:34;;;;;;;6.53;5.07;;;;;;;;;;2023826;29;20025;-89
2023/06/04 05:47:35;;;;;;;7.22;5.15;;;;;;;;;;2023811;29;20024;-90
2023/06/04 05:48:35;;;;;;;7.55;5.20;;;;;;;;;;2032860;29;20111;-89
2023/06/04 05:49:35;;;;;;;10.52;5.30;;;;;;;;;;2032546;29;20119;-89
2023/06/04 05:50:36;;;;;;;6.07;5.00;;;;;;;;;;2025286;29;20032;-90
2023/06/04 05:51:36;;;;;;;6.15;5.00;;;;;;;;;;2017120;29;20185;-89
2023/06/04 05:52:37;;;;;;;8.85;5.80;;;;;;;;;;2016845;29;20074;-90
2023/06/04 05:53:38;;;;;;;5.68;5.13;;;;;;;;;;2025098;29;20036;-89
2023/06/04 05:54:38;;;;;;;6.32;5.50;;;;;;;;;;2033421;29;20258;-90
2023/06/04 05:55:38;;;;;;;7.90;5.18;;;;;;;;;;2033036;29;20405;-89
2023/06/04 05:56:39;;;;;;;7.38;5.05;;;;;;;;;;2033367;29;20062;-90
2023/06/04 05:57:39;;;;;;;6.70;5.18;;;;;;;;;;2033099;29;20381;-90
2023/06/04 05:58:40;;;;;;;6.93;4.93;;;;;;;;;;2024883;29;20037;-90
2023/06/04 05:59:40;;;;;;;6.80;4.75;;;;;;;;;;2017201;29;20482;-89
2023/06/04 06:00:40;;;;;;;5.97;5.32;;;;;;;;;;2017270;29;20029;-89
2023/06/04 06:01:44;;;;;;;6.50;4.93;;;;;;;;;;2025026;29;20024;-89
2023/06/04 06:02:45;;;;;;;6.65;5.00;;;;;;;;;;2033671;29;20023;-89
2023/06/04 06:03:46;;;;;;;5.70;4.88;;;;;;;;;;2033439;29;20054;-89
2023/06/04 06:04:46;;;;;;;7.35;4.75;;;;;;;;;;2033220;29;20138;-89
2023/06/04 06:05:47;;;;;;;7.90;5.25;;;;;;;;;;2032586;29;20020;-89
2023/06/04 06:06:48;;;;;;;6.82;5.20;;;;;;;;;;2032428;29;20027;-89